Rechercher aéroport 
image banner adimage banner adimage banner ad
image banner ad

11CN - Shasta Rgnl Medical Center

Situé à Redding, United States

ICAO - 11CN, IATA -

Données fournies par Airmate  

Information générale

Coordonnées: N40°35'8" W122°23'16"
Élévation : 622 feet MSL.
 
Voir autres Aéroports à California

Données opérationnelles

Special qualification required
Heure actuelle UTC:
Heure actuelle locale:
Météo à : KRDD - Redding Muni ( 12 km )
METAR: KRDD 260953Z AUTO 00000KT 10SM CLR 17/08 A2990 RMK AO2 SLP119 T01720078
TAF: KRDD 260537Z 2606/2706 VRB04KT P6SM BKN250 FM262100 17008KT P6SM SCT250
Voir NOTAMs / SUP AIP / TFR affectant cet aéroport [VIEW]
Fréquences de communication: [VIEW]

Pistes:

Coordonnées de l'aéroport

Adresse: Redding United States

Vue satellite de 11CN